Asheville Regional Airport Asheville US
ICAO: KAVL
IATA: AVL
Category: Large
Scheduled Services: Yes

Elevation: 2165 ft
TransAlt. 18000 ft.

Airport Communications:
APP/DEP:124.65
ATIS:120.2
CTAF:121.1
GND:121.9
TWR:121.1
UNICOM:122.95

KAVL Zoom In..

Runways:

(A) RW 16 length 8001 ft width 150 ft
ILS 110.90 / hdg 164

(B) RW 34 length 8001 ft width 150 ft
ILS 110.50 / hdg 344

Location; KAVL
Day. 19 / Time. 02.54 Zulu
* Altimeter: 30.06
* Temperature: 23° c. 73.4°f.
* Wind from: 340° Speed 04 kn.
Dewpoint: 15° c.
Visibility: 10 Statute Miles.
Clouds: Few 4300 ft.
Clouds: Scattered 7000 ft.

KAVL 190254Z AUTO 34004KT 10SM FEW043 SCT070 23/15 A3006 RMK AO2 SLP149 T02330150 53010


Wind From 340°
Speed 04 kn.

 
 
jpsmedia.com for Web Design worldairports.se 2018   terms of use